createdAt,value
2023-03-22T00:01:21.550Z,6.40
2023-03-22T00:03:51.022Z,5.77
2023-03-22T00:06:19.562Z,5.57
2023-03-22T00:08:51.419Z,5.90
2023-03-22T00:11:20.430Z,5.67
2023-03-22T00:13:48.007Z,5.63
2023-03-22T00:16:17.724Z,5.67
2023-03-22T00:18:45.452Z,5.80
2023-03-22T00:21:15.754Z,5.53
2023-03-22T00:23:43.876Z,6.00
2023-03-22T00:26:13.018Z,5.20
2023-03-22T00:28:40.748Z,5.77
2023-03-22T00:31:08.348Z,5.93
2023-03-22T00:33:36.514Z,5.13
2023-03-22T00:36:08.160Z,5.47
2023-03-22T00:38:43.687Z,5.27
2023-03-22T00:41:23.330Z,5.60
2023-03-22T00:43:51.896Z,4.83
2023-03-22T00:46:21.209Z,5.20
2023-03-22T00:48:49.017Z,5.37
2023-03-22T00:51:16.653Z,4.87
2023-03-22T00:53:44.162Z,5.30
2023-03-22T00:56:15.800Z,4.83
2023-03-22T00:58:43.751Z,4.47
2023-03-22T01:01:14.090Z,4.60
2023-03-22T01:03:43.162Z,4.83
2023-03-22T01:06:11.023Z,4.43
2023-03-22T01:08:39.164Z,5.33
2023-03-22T01:11:07.785Z,4.57
2023-03-22T01:13:39.688Z,4.70
2023-03-22T01:16:08.958Z,4.27
2023-03-22T01:18:36.803Z,3.80
2023-03-22T01:21:05.308Z,4.63
2023-03-22T01:23:32.792Z,4.23
2023-03-22T01:26:01.574Z,4.17
2023-03-22T01:28:29.911Z,4.50
2023-03-22T01:31:04.340Z,4.30
2023-03-22T01:33:32.302Z,4.80
2023-03-22T01:36:02.622Z,4.33
2023-03-22T01:38:29.809Z,4.90
2023-03-22T01:40:57.830Z,4.57
2023-03-22T01:43:24.554Z,4.10
2023-03-22T01:45:53.390Z,4.40
2023-03-22T01:48:35.739Z,4.43
2023-03-22T01:51:24.718Z,4.20
2023-03-22T01:54:29.275Z,4.33
2023-03-22T01:56:56.658Z,4.33
2023-03-22T01:59:25.188Z,3.90
2023-03-22T02:01:52.028Z,3.93
2023-03-22T02:04:25.537Z,4.07
2023-03-22T02:06:55.523Z,4.00
2023-03-22T02:09:22.234Z,3.90
2023-03-22T02:12:26.778Z,3.70
2023-03-22T02:15:07.875Z,3.60
2023-03-22T02:17:52.983Z,3.60
2023-03-22T02:20:48.073Z,3.70
2023-03-22T02:23:55.716Z,3.83
2023-03-22T02:26:41.411Z,3.57
2023-03-22T02:29:29.874Z,4.00
2023-03-22T02:32:29.694Z,3.40
2023-03-22T02:35:28.876Z,3.80
2023-03-22T02:38:13.354Z,3.60
2023-03-22T02:41:09.020Z,3.93
2023-03-22T02:43:46.157Z,3.60
2023-03-22T02:46:35.614Z,3.53
2023-03-22T02:49:33.152Z,3.77
2023-03-22T02:52:17.402Z,3.70
2023-03-22T02:54:59.295Z,3.43
2023-03-22T02:57:50.165Z,3.93
2023-03-22T03:00:19.184Z,3.60
2023-03-22T03:02:53.770Z,4.23
2023-03-22T03:05:23.404Z,3.83
2023-03-22T03:08:00.497Z,3.67
2023-03-22T03:10:27.638Z,3.90
2023-03-22T03:12:54.390Z,3.83
2023-03-22T03:15:23.659Z,3.80
2023-03-22T03:18:13.713Z,3.60
2023-03-22T03:21:08.716Z,3.73
2023-03-22T03:23:49.620Z,4.23
2023-03-22T03:26:53.252Z,3.80
2023-03-22T03:29:44.036Z,3.37
2023-03-22T03:32:41.985Z,3.60
2023-03-22T03:35:25.348Z,3.57
2023-03-22T03:38:01.336Z,4.20
2023-03-22T03:40:32.172Z,3.70
2023-03-22T03:43:04.687Z,3.33
2023-03-22T03:45:32.268Z,3.73
2023-03-22T03:48:06.529Z,3.80
2023-03-22T03:50:33.528Z,3.73
2023-03-22T03:53:00.588Z,3.73
2023-03-22T03:55:29.000Z,4.03
2023-03-22T03:57:55.837Z,3.97
2023-03-22T04:00:23.166Z,4.27
2023-03-22T04:02:49.913Z,3.83
2023-03-22T04:05:18.382Z,4.30
2023-03-22T04:07:45.424Z,4.50
2023-03-22T04:10:12.294Z,4.13
2023-03-22T04:12:39.099Z,4.93
2023-03-22T04:15:06.865Z,4.20
2023-03-22T04:17:33.580Z,4.23
2023-03-22T04:20:05.383Z,4.00
2023-03-22T04:22:34.713Z,4.37
2023-03-22T04:25:01.797Z,4.20
2023-03-22T04:27:28.630Z,4.80
2023-03-22T04:29:55.980Z,4.57
2023-03-22T04:32:26.182Z,4.10
2023-03-22T04:34:53.377Z,5.30
2023-03-22T04:37:22.467Z,4.37
2023-03-22T04:39:49.217Z,3.97
2023-03-22T04:42:16.009Z,4.23
2023-03-22T04:44:42.738Z,4.07
2023-03-22T04:47:09.505Z,4.07
2023-03-22T04:49:36.225Z,3.73
2023-03-22T04:52:03.052Z,3.83
2023-03-22T04:54:29.826Z,4.87
2023-03-22T04:56:56.557Z,4.67
2023-03-22T04:59:23.375Z,4.13
2023-03-22T05:01:51.748Z,15.50
2023-03-22T05:04:19.191Z,6.20
2023-03-22T05:06:46.984Z,4.13
2023-03-22T05:09:14.688Z,4.00
2023-03-22T05:11:41.911Z,3.93
2023-03-22T05:14:10.249Z,3.87
2023-03-22T05:16:40.488Z,4.63
2023-03-22T05:19:13.902Z,4.63
2023-03-22T05:21:44.073Z,4.27
2023-03-22T05:24:11.343Z,4.43
2023-03-22T05:26:42.121Z,4.30
2023-03-22T05:29:11.056Z,3.67
2023-03-22T05:31:37.876Z,3.87
2023-03-22T05:34:04.731Z,3.70
2023-03-22T05:36:31.554Z,3.90
2023-03-22T05:38:58.347Z,3.50
2023-03-22T05:41:25.352Z,3.40
2023-03-22T05:43:52.126Z,3.43
2023-03-22T05:46:18.955Z,3.40
2023-03-22T05:48:45.846Z,3.77
2023-03-22T05:51:17.994Z,3.63
2023-03-22T05:53:46.954Z,4.40
2023-03-22T05:56:14.998Z,3.50
2023-03-22T05:58:42.530Z,3.13
2023-03-22T06:01:12.898Z,3.90
2023-03-22T06:03:40.201Z,3.10
2023-03-22T06:06:10.616Z,3.00
2023-03-22T06:08:39.404Z,3.13
2023-03-22T06:11:07.622Z,3.53
2023-03-22T06:13:34.434Z,2.77
2023-03-22T06:16:03.086Z,2.60
2023-03-22T06:18:31.011Z,2.80
2023-03-22T06:20:58.013Z,2.50
2023-03-22T06:23:24.798Z,2.87
2023-03-22T06:25:51.732Z,2.23
2023-03-22T06:28:18.541Z,2.20
2023-03-22T06:30:45.378Z,1.97
2023-03-22T06:33:12.195Z,2.40
2023-03-22T06:35:39.005Z,2.10
2023-03-22T06:38:06.038Z,1.93
2023-03-22T06:40:32.788Z,1.90
2023-03-22T06:43:03.510Z,2.10
2023-03-22T06:45:33.397Z,2.07
2023-03-22T06:48:01.151Z,2.10
2023-03-22T06:50:29.456Z,2.03
2023-03-22T06:52:56.713Z,1.80
2023-03-22T06:55:23.938Z,1.90
2023-03-22T06:57:50.727Z,1.70
2023-03-22T07:00:18.023Z,2.23
2023-03-22T07:02:44.769Z,1.70
2023-03-22T07:05:11.574Z,1.60
2023-03-22T07:07:38.645Z,1.93
2023-03-22T07:10:07.816Z,2.00
2023-03-22T07:12:34.815Z,1.73
2023-03-22T07:15:02.324Z,1.80
2023-03-22T07:17:29.213Z,1.70
2023-03-22T07:19:55.949Z,1.77
2023-03-22T07:22:22.718Z,1.80
2023-03-22T07:24:56.690Z,1.87
2023-03-22T07:27:25.174Z,1.60
2023-03-22T07:29:52.206Z,1.60
2023-03-22T07:32:19.068Z,2.00
2023-03-22T07:34:46.367Z,1.50
2023-03-22T07:37:13.712Z,1.67
2023-03-22T07:39:40.481Z,1.60
2023-03-22T07:42:07.324Z,1.57
2023-03-22T07:44:34.150Z,1.93
2023-03-22T07:47:00.898Z,1.83
2023-03-22T07:49:28.118Z,1.83
2023-03-22T07:51:54.889Z,1.73
2023-03-22T07:54:32.958Z,1.47
2023-03-22T07:57:01.962Z,1.70
2023-03-22T07:59:29.291Z,1.50
2023-03-22T08:01:56.121Z,1.57
2023-03-22T08:04:23.324Z,1.17
2023-03-22T08:06:51.247Z,1.63
2023-03-22T08:09:18.517Z,1.40
2023-03-22T08:11:45.288Z,1.30
2023-03-22T08:14:12.048Z,1.20
2023-03-22T08:16:38.868Z,1.23
2023-03-22T08:19:05.954Z,1.13
2023-03-22T08:21:32.810Z,1.60
2023-03-22T08:23:59.631Z,1.40
2023-03-22T08:26:27.296Z,1.80
2023-03-22T08:28:54.161Z,1.30
2023-03-22T08:31:20.964Z,1.07
2023-03-22T08:33:48.271Z,1.57
2023-03-22T08:36:24.563Z,1.37
2023-03-22T08:38:51.627Z,1.30
2023-03-22T08:41:18.427Z,1.13
2023-03-22T08:43:45.375Z,1.67
2023-03-22T08:46:12.178Z,1.33
2023-03-22T08:48:41.651Z,1.50
2023-03-22T08:51:08.811Z,1.40
2023-03-22T08:53:35.606Z,1.50
2023-03-22T08:56:02.338Z,1.53
2023-03-22T08:58:29.074Z,1.57
2023-03-22T09:00:55.968Z,1.33
2023-03-22T09:03:24.795Z,1.30
2023-03-22T09:05:51.585Z,1.23
2023-03-22T09:08:19.856Z,1.40
2023-03-22T09:10:51.882Z,1.57
2023-03-22T09:13:20.328Z,1.37
2023-03-22T09:15:47.883Z,1.60
2023-03-22T09:18:16.159Z,1.40
2023-03-22T09:20:45.757Z,1.37
2023-03-22T09:23:15.403Z,1.57
2023-03-22T09:25:46.897Z,1.40
2023-03-22T09:28:14.490Z,1.30
2023-03-22T09:30:41.743Z,1.73
2023-03-22T09:33:09.323Z,1.50
2023-03-22T09:35:41.290Z,1.50
2023-03-22T09:38:09.007Z,1.40
2023-03-22T09:40:43.261Z,1.63
2023-03-22T09:43:15.482Z,1.53
2023-03-22T09:45:48.189Z,1.67
2023-03-22T09:48:22.612Z,1.57
2023-03-22T09:50:55.188Z,1.50
2023-03-22T09:53:26.976Z,1.63
2023-03-22T09:56:20.803Z,1.63
2023-03-22T09:59:23.152Z,1.63
2023-03-22T10:01:51.092Z,1.70
2023-03-22T10:05:11.247Z,1.77
2023-03-22T10:08:16.165Z,1.60
2023-03-22T10:10:43.733Z,1.40
2023-03-22T10:13:24.071Z,1.60
2023-03-22T10:15:56.007Z,1.87
2023-03-22T10:18:48.642Z,1.70
2023-03-22T10:21:19.841Z,1.50
2023-03-22T10:23:59.114Z,1.50
2023-03-22T10:26:35.159Z,1.83
2023-03-22T10:29:38.769Z,1.57
2023-03-22T10:32:17.938Z,1.50
2023-03-22T10:34:46.583Z,1.43
2023-03-22T10:37:35.083Z,1.57
2023-03-22T10:40:07.027Z,1.60
2023-03-22T10:42:38.655Z,1.60
2023-03-22T10:45:15.681Z,1.60
2023-03-22T10:48:19.252Z,1.57
2023-03-22T10:50:53.708Z,1.60
2023-03-22T10:53:47.767Z,1.60
2023-03-22T10:56:20.189Z,1.57
2023-03-22T10:58:50.283Z,2.07
2023-03-22T11:01:29.916Z,1.30
2023-03-22T11:04:19.203Z,1.50
2023-03-22T11:06:55.597Z,1.60
2023-03-22T11:09:25.300Z,1.53
2023-03-22T11:12:01.042Z,1.50
2023-03-22T11:14:45.109Z,1.73
2023-03-22T11:17:17.273Z,5.27
2023-03-22T11:19:58.653Z,1.77
2023-03-22T11:22:44.056Z,1.60
2023-03-22T11:25:34.380Z,1.60
2023-03-22T11:28:07.995Z,1.40
2023-03-22T11:30:37.091Z,1.83
2023-03-22T11:33:21.801Z,1.50
2023-03-22T11:35:56.817Z,1.80
2023-03-22T11:38:36.572Z,1.70
2023-03-22T11:41:21.035Z,1.40
2023-03-22T11:44:01.776Z,1.43
2023-03-22T11:46:30.863Z,1.50
2023-03-22T11:49:02.947Z,1.90
2023-03-22T11:51:38.332Z,1.70
2023-03-22T11:54:42.254Z,1.53
2023-03-22T11:57:33.868Z,1.53
2023-03-22T12:00:21.519Z,1.93
2023-03-22T12:03:00.517Z,1.80
2023-03-22T12:05:31.987Z,2.03
2023-03-22T12:08:13.376Z,1.80
2023-03-22T12:10:44.775Z,1.40
2023-03-22T12:14:06.899Z,1.43
2023-03-22T12:16:47.847Z,1.43
2023-03-22T12:19:46.964Z,1.30
2023-03-22T12:22:19.932Z,1.43
2023-03-22T12:24:46.715Z,1.50
2023-03-22T12:27:21.346Z,1.70
2023-03-22T12:30:04.229Z,1.70
2023-03-22T12:32:41.816Z,1.40
2023-03-22T12:35:18.409Z,1.60
2023-03-22T12:37:52.443Z,1.60
2023-03-22T12:40:23.473Z,1.80
2023-03-22T12:43:15.138Z,1.50
2023-03-22T12:45:53.249Z,1.30
2023-03-22T12:48:32.545Z,1.50
2023-03-22T12:51:11.493Z,1.60
2023-03-22T12:53:53.011Z,1.50
2023-03-22T12:56:27.076Z,1.70
2023-03-22T12:59:02.602Z,1.93
2023-03-22T13:02:05.042Z,1.50
2023-03-22T13:04:37.848Z,1.60
2023-03-22T13:07:31.669Z,1.63
2023-03-22T13:10:00.809Z,1.40
2023-03-22T13:12:36.741Z,1.80
2023-03-22T13:15:41.157Z,1.37
2023-03-22T13:18:39.700Z,1.60
2023-03-22T13:21:27.603Z,1.70
2023-03-22T13:24:01.429Z,1.50
2023-03-22T13:26:47.675Z,1.63
2023-03-22T13:29:39.801Z,1.33
2023-03-22T13:32:30.034Z,1.60
2023-03-22T13:35:00.806Z,1.40
2023-03-22T13:38:09.498Z,1.37
2023-03-22T13:40:49.673Z,1.40
2023-03-22T13:43:57.706Z,1.47
2023-03-22T13:46:53.344Z,1.50
2023-03-22T13:49:49.505Z,1.67
2023-03-22T13:52:29.442Z,1.70
2023-03-22T13:54:58.560Z,1.27
2023-03-22T13:57:49.495Z,1.40
2023-03-22T14:00:36.264Z,1.40
2023-03-22T14:03:17.342Z,1.63
2023-03-22T14:05:47.227Z,1.50
2023-03-22T14:08:25.594Z,1.40
2023-03-22T14:11:01.438Z,1.00
2023-03-22T14:13:42.378Z,1.33
2023-03-22T14:16:19.620Z,1.20
2023-03-22T14:18:49.833Z,1.40
2023-03-22T14:21:25.488Z,1.50
